Terminal Aerodrome Forecast
Issued by NWS Charleston, WV

Current Version | Previous Version | Graphics & Text | Print | Product List | Glossary On
Versions: 1 2 3 4 5 6 7 8 9 10 11 12 13 14 15 16 17 18 19 20 21 22 23 24 25 26
000
FTUS41 KRLX 290909 AAA
TAFPKB
TAF AMD
KPKB 290909Z 2909/3006 00000KT 5SM BR BKN250
     FM291200 VRB03KT P6SM BKN200
     FM291600 VRB04KT P6SM VCTS BKN060CB
     FM291800 00000KT P6SM BKN150=

USA.gov is the U.S. government's official web portal to all federal, state and local government web resources and services.